sensor_id;sensor_type;location;lat;lon;timestamp;pressure;altitude;pressure_sealevel;temperature;humidity
28008;BME280;15333;50.010;20.020;2023-02-22T00:02:05;98743.50;;;5.36;86.54
28008;BME280;15333;50.010;20.020;2023-02-22T00:05:26;98747.78;;;5.39;86.12
28008;BME280;15333;50.010;20.020;2023-02-22T00:08:29;98749.94;;;5.32;87.12
28008;BME280;15333;50.010;20.020;2023-02-22T00:11:31;98750.59;;;5.36;87.73
28008;BME280;15333;50.010;20.020;2023-02-22T00:14:32;98745.47;;;5.33;88.33
28008;BME280;15333;50.010;20.020;2023-02-22T00:17:33;98753.44;;;5.33;88.63
28008;BME280;15333;50.010;20.020;2023-02-22T00:20:35;98749.41;;;5.26;89.12
28008;BME280;15333;50.010;20.020;2023-02-22T00:23:40;98749.72;;;5.20;89.44
28008;BME280;15333;50.010;20.020;2023-02-22T00:26:46;98749.41;;;5.26;89.51
28008;BME280;15333;50.010;20.020;2023-02-22T00:29:46;98759.38;;;5.21;90.41
28008;BME280;15333;50.010;20.020;2023-02-22T00:32:48;98756.66;;;5.22;89.73
28008;BME280;15333;50.010;20.020;2023-02-22T00:35:49;98755.03;;;5.20;89.56
28008;BME280;15333;50.010;20.020;2023-02-22T00:38:51;98761.09;;;5.22;89.08
28008;BME280;15333;50.010;20.020;2023-02-22T00:41:51;98766.59;;;5.34;87.44
28008;BME280;15333;50.010;20.020;2023-02-22T00:44:52;98760.44;;;5.34;87.05
28008;BME280;15333;50.010;20.020;2023-02-22T00:47:53;98757.47;;;5.40;86.88
28008;BME280;15333;50.010;20.020;2023-02-22T00:50:55;98769.03;;;5.39;86.59
28008;BME280;15333;50.010;20.020;2023-02-22T00:53:56;98759.00;;;5.44;85.62
28008;BME280;15333;50.010;20.020;2023-02-22T00:56:58;98770.41;;;5.46;85.83
28008;BME280;15333;50.010;20.020;2023-02-22T01:00:06;98769.75;;;5.41;86.46
28008;BME280;15333;50.010;20.020;2023-02-22T01:03:18;98777.50;;;5.45;86.64
28008;BME280;15333;50.010;20.020;2023-02-22T01:06:19;98769.75;;;5.41;87.36
28008;BME280;15333;50.010;20.020;2023-02-22T01:09:21;98766.38;;;5.39;87.54
28008;BME280;15333;50.010;20.020;2023-02-22T01:12:22;98769.25;;;5.34;87.74
28008;BME280;15333;50.010;20.020;2023-02-22T01:15:25;98770.44;;;5.29;88.17
28008;BME280;15333;50.010;20.020;2023-02-22T01:18:28;98777.22;;;5.34;87.79
28008;BME280;15333;50.010;20.020;2023-02-22T01:21:29;98776.47;;;5.32;88.67
28008;BME280;15333;50.010;20.020;2023-02-22T01:24:30;98776.09;;;5.23;88.83
28008;BME280;15333;50.010;20.020;2023-02-22T01:27:31;98771.81;;;5.36;88.90
28008;BME280;15333;50.010;20.020;2023-02-22T01:30:34;98767.97;;;5.26;89.03
28008;BME280;15333;50.010;20.020;2023-02-22T01:33:35;98771.13;;;5.17;89.35
28008;BME280;15333;50.010;20.020;2023-02-22T01:36:36;98773.00;;;5.15;90.60
28008;BME280;15333;50.010;20.020;2023-02-22T01:39:37;98761.19;;;5.20;90.04
28008;BME280;15333;50.010;20.020;2023-02-22T01:42:38;98769.41;;;5.16;90.62
28008;BME280;15333;50.010;20.020;2023-02-22T01:48:51;98777.63;;;5.11;90.86
28008;BME280;15333;50.010;20.020;2023-02-22T01:51:56;98771.91;;;5.19;90.49
28008;BME280;15333;50.010;20.020;2023-02-22T01:54:57;98773.00;;;5.15;90.99
28008;BME280;15333;50.010;20.020;2023-02-22T01:58:01;98775.38;;;5.03;91.87
28008;BME280;15333;50.010;20.020;2023-02-22T02:01:04;98771.94;;;5.01;91.77
28008;BME280;15333;50.010;20.020;2023-02-22T02:04:09;98762.97;;;5.04;91.87
28008;BME280;15333;50.010;20.020;2023-02-22T02:07:13;98761.16;;;5.04;91.71
28008;BME280;15333;50.010;20.020;2023-02-22T02:10:17;98764.91;;;5.00;92.11
28008;BME280;15333;50.010;20.020;2023-02-22T02:13:18;98764.25;;;5.12;91.62
28008;BME280;15333;50.010;20.020;2023-02-22T02:16:22;98761.16;;;5.04;91.91
28008;BME280;15333;50.010;20.020;2023-02-22T02:27:15;98761.34;;;5.01;91.61
28008;BME280;15333;50.010;20.020;2023-02-22T02:30:40;98764.25;;;5.12;92.03
28008;BME280;15333;50.010;20.020;2023-02-22T02:36:59;98764.78;;;5.03;91.98
28008;BME280;15333;50.010;20.020;2023-02-22T02:40:11;98770.22;;;5.00;93.22
28008;BME280;15333;50.010;20.020;2023-02-22T02:43:30;98770.38;;;4.97;92.80
28008;BME280;15333;50.010;20.020;2023-02-22T02:49:45;98765.72;;;4.85;93.67
28008;BME280;15333;50.010;20.020;2023-02-22T02:52:48;98767.78;;;4.80;94.13
28008;BME280;15333;50.010;20.020;2023-02-22T02:55:51;98772.28;;;4.78;94.66
28008;BME280;15333;50.010;20.020;2023-02-22T02:58:53;98767.78;;;4.80;94.57
28008;BME280;15333;50.010;20.020;2023-02-22T03:05:35;98771.22;;;4.82;94.59
28008;BME280;15333;50.010;20.020;2023-02-22T03:09:14;98772.38;;;4.77;94.63
28008;BME280;15333;50.010;20.020;2023-02-22T03:19:42;98785.53;;;4.78;94.33
28008;BME280;15333;50.010;20.020;2023-02-22T03:22:15;98786.94;;;4.85;95.00
28008;BME280;15333;50.010;20.020;2023-02-22T03:25:23;98779.91;;;4.84;94.56
28008;BME280;15333;50.010;20.020;2023-02-22T03:28:34;98784.16;;;4.71;94.33
28008;BME280;15333;50.010;20.020;2023-02-22T03:31:41;98780.56;;;4.72;95.34
28008;BME280;15333;50.010;20.020;2023-02-22T03:34:50;98785.72;;;4.75;94.26
28008;BME280;15333;50.010;20.020;2023-02-22T03:37:57;98790.84;;;4.78;93.11
28008;BME280;15333;50.010;20.020;2023-02-22T03:41:01;98791.03;;;4.75;93.89
28008;BME280;15333;50.010;20.020;2023-02-22T03:44:05;98787.25;;;4.79;93.34
28008;BME280;15333;50.010;20.020;2023-02-22T03:47:12;98784.94;;;4.73;94.12
28008;BME280;15333;50.010;20.020;2023-02-22T03:50:22;98788.66;;;4.69;94.16
28008;BME280;15333;50.010;20.020;2023-02-22T03:53:26;98789.13;;;4.77;94.56
28008;BME280;15333;50.010;20.020;2023-02-22T03:56:30;98790.16;;;4.75;94.48
28008;BME280;15333;50.010;20.020;2023-02-22T03:59:36;98793.44;;;4.80;94.45
28008;BME280;15333;50.010;20.020;2023-02-22T04:02:37;98799.69;;;4.61;94.92
28008;BME280;15333;50.010;20.020;2023-02-22T04:05:38;98799.44;;;4.66;95.90
28008;BME280;15333;50.010;20.020;2023-02-22T04:08:39;98798.06;;;4.59;95.38
28008;BME280;15333;50.010;20.020;2023-02-22T04:11:40;98797.19;;;4.76;95.05
28008;BME280;15333;50.010;20.020;2023-02-22T04:14:42;98801.56;;;4.59;95.38
28008;BME280;15333;50.010;20.020;2023-02-22T04:17:43;98801.78;;;4.72;95.23
28008;BME280;15333;50.010;20.020;2023-02-22T04:20:47;98799.59;;;4.63;94.77
28008;BME280;15333;50.010;20.020;2023-02-22T04:23:58;98810.97;;;4.65;94.75
28008;BME280;15333;50.010;20.020;2023-02-22T04:27:00;98805.00;;;4.61;95.37
28008;BME280;15333;50.010;20.020;2023-02-22T04:30:02;98802.41;;;4.60;94.75
28008;BME280;15333;50.010;20.020;2023-02-22T04:33:05;98804.13;;;4.61;95.51
28008;BME280;15333;50.010;20.020;2023-02-22T04:36:06;98802.88;;;4.51;95.27
28008;BME280;15333;50.010;20.020;2023-02-22T04:39:09;98798.38;;;4.53;96.00
28008;BME280;15333;50.010;20.020;2023-02-22T04:42:10;98803.88;;;4.48;96.19
28008;BME280;15333;50.010;20.020;2023-02-22T04:45:11;98804.59;;;4.52;96.39
28008;BME280;15333;50.010;20.020;2023-02-22T04:48:13;98796.91;;;4.47;97.30
28008;BME280;15333;50.010;20.020;2023-02-22T04:51:15;98810.97;;;4.48;96.84
28008;BME280;15333;50.010;20.020;2023-02-22T04:54:27;98810.91;;;4.49;97.68
28008;BME280;15333;50.010;20.020;2023-02-22T04:57:28;98808.56;;;4.43;98.11
28008;BME280;15333;50.010;20.020;2023-02-22T05:00:29;98805.81;;;4.62;97.51
28008;BME280;15333;50.010;20.020;2023-02-22T05:03:36;98810.59;;;4.55;97.02
28008;BME280;15333;50.010;20.020;2023-02-22T05:06:37;98804.59;;;4.52;98.25
28008;BME280;15333;50.010;20.020;2023-02-22T05:09:39;98805.59;;;4.49;97.64
28008;BME280;15333;50.010;20.020;2023-02-22T05:12:39;98802.41;;;4.60;97.02
28008;BME280;15333;50.010;20.020;2023-02-22T05:15:40;98804.44;;;4.55;97.17
28008;BME280;15333;50.010;20.020;2023-02-22T05:18:41;98804.75;;;4.49;98.20
28008;BME280;15333;50.010;20.020;2023-02-22T05:21:42;98805.22;;;4.40;99.15
28008;BME280;15333;50.010;20.020;2023-02-22T05:38:29;98818.22;;;4.44;99.58
28008;BME280;15333;50.010;20.020;2023-02-22T05:41:30;98820.94;;;4.43;99.21
28008;BME280;15333;50.010;20.020;2023-02-22T05:44:31;98829.84;;;4.42;99.86
28008;BME280;15333;50.010;20.020;2023-02-22T05:47:32;98819.22;;;4.42;99.89
28008;BME280;15333;50.010;20.020;2023-02-22T05:50:33;98832.00;;;4.33;100.00
28008;BME280;15333;50.010;20.020;2023-02-22T05:53:34;98833.13;;;4.47;99.31
28008;BME280;15333;50.010;20.020;2023-02-22T05:56:35;98835.13;;;4.42;100.00
28008;BME280;15333;50.010;20.020;2023-02-22T05:59:36;98834.81;;;4.48;100.00
28008;BME280;15333;50.010;20.020;2023-02-22T06:02:37;98848.84;;;4.50;99.28
28008;BME280;15333;50.010;20.020;2023-02-22T06:05:38;98855.75;;;4.54;99.86
28008;BME280;15333;50.010;20.020;2023-02-22T06:08:39;98856.75;;;4.51;99.07
28008;BME280;15333;50.010;20.020;2023-02-22T06:11:40;98859.31;;;4.53;99.63
28008;BME280;15333;50.010;20.020;2023-02-22T06:14:42;98864.75;;;4.50;99.03
28008;BME280;15333;50.010;20.020;2023-02-22T06:17:46;98863.84;;;4.51;99.38
28008;BME280;15333;50.010;20.020;2023-02-22T06:20:47;98863.38;;;4.60;98.62
28008;BME280;15333;50.010;20.020;2023-02-22T06:23:48;98869.16;;;4.68;98.23
28008;BME280;15333;50.010;20.020;2023-02-22T06:26:56;98866.72;;;4.63;97.35
28008;BME280;15333;50.010;20.020;2023-02-22T06:29:59;98879.34;;;4.58;98.53
28008;BME280;15333;50.010;20.020;2023-02-22T06:33:00;98883.09;;;4.54;98.88
28008;BME280;15333;50.010;20.020;2023-02-22T06:36:01;98886.16;;;4.81;98.31
28008;BME280;15333;50.010;20.020;2023-02-22T06:39:02;98879.13;;;4.80;98.16
28008;BME280;15333;50.010;20.020;2023-02-22T06:42:03;98885.38;;;4.79;97.07
28008;BME280;15333;50.010;20.020;2023-02-22T06:45:04;98883.56;;;4.80;97.39
28008;BME280;15333;50.010;20.020;2023-02-22T06:48:05;98888.41;;;4.89;96.82
28008;BME280;15333;50.010;20.020;2023-02-22T06:51:09;98885.50;;;4.93;97.14
28008;BME280;15333;50.010;20.020;2023-02-22T06:54:10;98886.31;;;4.95;95.89
28008;BME280;15333;50.010;20.020;2023-02-22T06:57:11;98898.25;;;5.04;95.77
28008;BME280;15333;50.010;20.020;2023-02-22T07:00:15;98896.41;;;5.04;95.42
28008;BME280;15333;50.010;20.020;2023-02-22T07:03:16;98901.91;;;5.19;94.00
28008;BME280;15333;50.010;20.020;2023-02-22T07:06:18;98894.41;;;5.09;94.89
28008;BME280;15333;50.010;20.020;2023-02-22T07:09:19;98894.88;;;5.18;95.05
28008;BME280;15333;50.010;20.020;2023-02-22T07:12:20;98902.63;;;5.38;92.44
28008;BME280;15333;50.010;20.020;2023-02-22T07:15:22;98889.53;;;5.35;92.17
28008;BME280;15333;50.010;20.020;2023-02-22T07:18:24;98891.22;;;5.53;92.26
28008;BME280;15333;50.010;20.020;2023-02-22T07:21:26;98901.00;;;5.68;90.45
28008;BME280;15333;50.010;20.020;2023-02-22T07:24:27;98898.06;;;5.57;89.69
28008;BME280;15333;50.010;20.020;2023-02-22T07:27:28;98898.78;;;5.76;89.74
28008;BME280;15333;50.010;20.020;2023-02-22T07:30:31;98900.75;;;5.73;89.85
28008;BME280;15333;50.010;20.020;2023-02-22T07:33:33;98909.25;;;5.79;88.87
28008;BME280;15333;50.010;20.020;2023-02-22T07:36:35;98899.28;;;5.83;89.10
28008;BME280;15333;50.010;20.020;2023-02-22T07:39:35;98901.59;;;6.06;85.96
28008;BME280;15333;50.010;20.020;2023-02-22T07:45:58;98891.31;;;6.16;84.56
28008;BME280;15333;50.010;20.020;2023-02-22T07:49:00;98893.53;;;6.39;82.62
28008;BME280;15333;50.010;20.020;2023-02-22T07:52:00;98893.53;;;6.39;82.18
28008;BME280;15333;50.010;20.020;2023-02-22T07:55:01;98896.94;;;6.41;82.15
28008;BME280;15333;50.010;20.020;2023-02-22T07:58:05;98900.41;;;6.73;82.33
28008;BME280;15333;50.010;20.020;2023-02-22T08:01:06;98904.28;;;6.67;81.67
28008;BME280;15333;50.010;20.020;2023-02-22T08:04:08;98904.56;;;6.47;81.65
28008;BME280;15333;50.010;20.020;2023-02-22T08:07:09;98909.63;;;6.67;80.01
28008;BME280;15333;50.010;20.020;2023-02-22T08:10:10;98908.34;;;6.43;79.84
28008;BME280;15333;50.010;20.020;2023-02-22T08:13:12;98910.63;;;6.81;78.69
28008;BME280;15333;50.010;20.020;2023-02-22T08:16:12;98904.41;;;6.96;78.65
28008;BME280;15333;50.010;20.020;2023-02-22T08:19:13;98902.84;;;6.92;75.95
28008;BME280;15333;50.010;20.020;2023-02-22T08:22:14;98902.81;;;7.07;75.78
28008;BME280;15333;50.010;20.020;2023-02-22T08:25:17;98905.97;;;7.28;75.96
28008;BME280;15333;50.010;20.020;2023-02-22T08:28:20;98907.69;;;7.29;73.54
28008;BME280;15333;50.010;20.020;2023-02-22T08:31:23;98904.13;;;7.59;72.24
28008;BME280;15333;50.010;20.020;2023-02-22T08:34:24;98909.72;;;7.68;69.84
28008;BME280;15333;50.010;20.020;2023-02-22T08:37:25;98901.25;;;7.76;71.23
28008;BME280;15333;50.010;20.020;2023-02-22T08:40:28;98902.50;;;7.70;70.87
28008;BME280;15333;50.010;20.020;2023-02-22T08:43:30;98902.56;;;7.97;70.33
28008;BME280;15333;50.010;20.020;2023-02-22T08:46:31;98908.97;;;7.66;67.41
28008;BME280;15333;50.010;20.020;2023-02-22T08:49:32;98902.78;;;7.52;66.75
28008;BME280;15333;50.010;20.020;2023-02-22T08:52:33;98911.16;;;7.74;64.54
28008;BME280;15333;50.010;20.020;2023-02-22T08:55:36;98910.38;;;8.00;62.93
28008;BME280;15333;50.010;20.020;2023-02-22T08:58:37;98908.28;;;7.77;62.56
28008;BME280;15333;50.010;20.020;2023-02-22T09:01:38;98912.28;;;7.70;66.87
28008;BME280;15333;50.010;20.020;2023-02-22T09:04:39;98905.72;;;7.75;67.98
28008;BME280;15333;50.010;20.020;2023-02-22T09:07:40;98914.66;;;8.03;67.76
28008;BME280;15333;50.010;20.020;2023-02-22T09:10:42;98916.09;;;7.80;69.54
28008;BME280;15333;50.010;20.020;2023-02-22T09:13:45;98918.28;;;7.73;69.17
28008;BME280;15333;50.010;20.020;2023-02-22T09:16:46;98917.81;;;7.67;68.27
28008;BME280;15333;50.010;20.020;2023-02-22T09:19:47;98921.03;;;7.72;67.32
28008;BME280;15333;50.010;20.020;2023-02-22T09:22:48;98918.78;;;7.80;67.23
28008;BME280;15333;50.010;20.020;2023-02-22T09:25:49;98918.38;;;7.72;67.78
28008;BME280;15333;50.010;20.020;2023-02-22T09:28:50;98924.34;;;7.90;66.49
28008;BME280;15333;50.010;20.020;2023-02-22T09:31:53;98915.16;;;7.95;64.33
28008;BME280;15333;50.010;20.020;2023-02-22T09:34:54;98917.22;;;8.04;62.61
28008;BME280;15333;50.010;20.020;2023-02-22T09:37:57;98927.22;;;8.01;62.77
28008;BME280;15333;50.010;20.020;2023-02-22T09:47:13;98916.00;;;7.81;60.61
28008;BME280;15333;50.010;20.020;2023-02-22T09:50:25;98908.47;;;7.45;60.24
28008;BME280;15333;50.010;20.020;2023-02-22T09:53:38;98908.50;;;7.60;61.29
28008;BME280;15333;50.010;20.020;2023-02-22T09:56:42;98912.84;;;7.89;61.64
28008;BME280;15333;50.010;20.020;2023-02-22T10:00:03;98913.03;;;8.14;59.36
28008;BME280;15333;50.010;20.020;2023-02-22T10:03:19;98906.72;;;8.30;58.54
28008;BME280;15333;50.010;20.020;2023-02-22T10:06:23;98909.66;;;8.25;58.40
28008;BME280;15333;50.010;20.020;2023-02-22T10:09:26;98900.31;;;8.73;57.42
28008;BME280;15333;50.010;20.020;2023-02-22T10:23:18;98895.03;;;8.04;55.13
28008;BME280;15333;50.010;20.020;2023-02-22T10:26:28;98894.69;;;8.51;54.39
28008;BME280;15333;50.010;20.020;2023-02-22T10:32:40;98890.16;;;8.10;55.36
28008;BME280;15333;50.010;20.020;2023-02-22T10:35:45;98893.81;;;8.09;56.47
28008;BME280;15333;50.010;20.020;2023-02-22T10:38:58;98892.34;;;8.18;55.92
28008;BME280;15333;50.010;20.020;2023-02-22T10:42:03;98895.47;;;8.24;55.38
28008;BME280;15333;50.010;20.020;2023-02-22T10:45:27;98890.72;;;8.30;54.55
28008;BME280;15333;50.010;20.020;2023-02-22T10:48:31;98892.47;;;8.31;54.05
28008;BME280;15333;50.010;20.020;2023-02-22T10:51:35;98889.84;;;7.31;55.77
28008;BME280;15333;50.010;20.020;2023-02-22T10:54:39;98894.56;;;7.40;56.03
28008;BME280;15333;50.010;20.020;2023-02-22T10:57:45;98891.53;;;7.61;55.82
28008;BME280;15333;50.010;20.020;2023-02-22T11:00:46;98888.59;;;7.65;55.09
28008;BME280;15333;50.010;20.020;2023-02-22T11:07:27;98889.53;;;8.07;54.69
28008;BME280;15333;50.010;20.020;2023-02-22T11:10:31;98885.03;;;8.07;53.16
28008;BME280;15333;50.010;20.020;2023-02-22T11:13:38;98882.16;;;8.10;54.16
28008;BME280;15333;50.010;20.020;2023-02-22T11:16:49;98880.44;;;8.23;54.07
28008;BME280;15333;50.010;20.020;2023-02-22T11:19:51;98878.41;;;8.00;53.86
28008;BME280;15333;50.010;20.020;2023-02-22T11:22:57;98878.00;;;8.06;54.29
28008;BME280;15333;50.010;20.020;2023-02-22T11:26:16;98880.31;;;8.25;53.35
28008;BME280;15333;50.010;20.020;2023-02-22T11:29:27;98875.94;;;7.83;54.41
28008;BME280;15333;50.010;20.020;2023-02-22T11:32:32;98872.44;;;8.23;54.15
28008;BME280;15333;50.010;20.020;2023-02-22T11:35:34;98880.41;;;7.82;54.79
28008;BME280;15333;50.010;20.020;2023-02-22T11:38:38;98876.25;;;7.50;55.29
28008;BME280;15333;50.010;20.020;2023-02-22T11:41:39;98886.41;;;7.58;55.36
28008;BME280;15333;50.010;20.020;2023-02-22T11:44:40;98890.41;;;7.79;55.25
28008;BME280;15333;50.010;20.020;2023-02-22T11:47:56;98881.44;;;8.08;54.22
28008;BME280;15333;50.010;20.020;2023-02-22T11:54:15;98877.06;;;8.48;53.65
28008;BME280;15333;50.010;20.020;2023-02-22T12:04:27;98872.69;;;8.47;54.71
28008;BME280;15333;50.010;20.020;2023-02-22T12:07:33;98870.06;;;8.33;53.82
28008;BME280;15333;50.010;20.020;2023-02-22T12:10:53;98861.25;;;8.72;53.57
28008;BME280;15333;50.010;20.020;2023-02-22T12:17:47;98863.88;;;8.33;53.89
28008;BME280;15333;50.010;20.020;2023-02-22T12:20:54;98861.09;;;7.93;54.41
28008;BME280;15333;50.010;20.020;2023-02-22T12:24:09;98868.13;;;7.94;54.97
28008;BME280;15333;50.010;20.020;2023-02-22T12:27:27;98860.88;;;7.82;55.30
28008;BME280;15333;50.010;20.020;2023-02-22T12:30:33;98868.25;;;8.19;55.18
28008;BME280;15333;50.010;20.020;2023-02-22T12:44:22;98849.69;;;8.32;54.87
28008;BME280;15333;50.010;20.020;2023-02-22T12:47:38;98848.97;;;8.43;54.20
28008;BME280;15333;50.010;20.020;2023-02-22T12:50:42;98845.66;;;8.66;53.12
28008;BME280;15333;50.010;20.020;2023-02-22T13:03:49;98846.50;;;8.67;52.62
28008;BME280;15333;50.010;20.020;2023-02-22T13:20:28;98857.66;;;7.91;54.77
28008;BME280;15333;50.010;20.020;2023-02-22T13:23:42;98854.44;;;7.86;54.30
28008;BME280;15333;50.010;20.020;2023-02-22T13:27:07;98842.34;;;8.21;54.35
28008;BME280;15333;50.010;20.020;2023-02-22T13:30:17;98853.78;;;8.23;53.75
28008;BME280;15333;50.010;20.020;2023-02-22T13:53:58;98856.75;;;7.50;55.67
28008;BME280;15333;50.010;20.020;2023-02-22T13:57:03;98860.16;;;7.23;55.79
28008;BME280;15333;50.010;20.020;2023-02-22T14:00:20;98864.34;;;7.41;55.84
28008;BME280;15333;50.010;20.020;2023-02-22T14:06:38;98867.56;;;7.46;55.97
28008;BME280;15333;50.010;20.020;2023-02-22T14:09:55;98858.25;;;7.54;55.49
28008;BME280;15333;50.010;20.020;2023-02-22T14:13:04;98856.56;;;7.24;56.11
28008;BME280;15333;50.010;20.020;2023-02-22T14:22:13;98853.69;;;7.41;56.76
28008;BME280;15333;50.010;20.020;2023-02-22T14:25:34;98856.91;;;7.18;56.36
28008;BME280;15333;50.010;20.020;2023-02-22T14:34:53;98855.94;;;7.05;56.64
28008;BME280;15333;50.010;20.020;2023-02-22T14:37:59;98862.84;;;6.93;56.90
28008;BME280;15333;50.010;20.020;2023-02-22T14:41:01;98862.16;;;6.90;57.46
28008;BME280;15333;50.010;20.020;2023-02-22T14:44:03;98852.56;;;7.17;57.06
28008;BME280;15333;50.010;20.020;2023-02-22T14:47:08;98864.84;;;7.04;57.73
28008;BME280;15333;50.010;20.020;2023-02-22T14:50:22;98862.41;;;7.15;57.13
28008;BME280;15333;50.010;20.020;2023-02-22T14:53:30;98864.69;;;7.07;57.06
28008;BME280;15333;50.010;20.020;2023-02-22T14:56:52;98854.34;;;7.17;56.67
28008;BME280;15333;50.010;20.020;2023-02-22T15:00:18;98862.03;;;7.21;56.30
28008;BME280;15333;50.010;20.020;2023-02-22T15:03:32;98863.13;;;6.89;57.19
28008;BME280;15333;50.010;20.020;2023-02-22T15:06:37;98863.22;;;6.87;57.47
28008;BME280;15333;50.010;20.020;2023-02-22T15:09:37;98871.69;;;6.94;56.92
28008;BME280;15333;50.010;20.020;2023-02-22T15:12:38;98866.47;;;6.92;57.41
28008;BME280;15333;50.010;20.020;2023-02-22T15:15:41;98863.72;;;6.94;57.56
28008;BME280;15333;50.010;20.020;2023-02-22T15:18:49;98870.50;;;6.84;57.89
28008;BME280;15333;50.010;20.020;2023-02-22T15:21:53;98870.47;;;6.69;58.30
28008;BME280;15333;50.010;20.020;2023-02-22T15:24:59;98871.25;;;6.72;58.73
28008;BME280;15333;50.010;20.020;2023-02-22T15:28:03;98870.31;;;6.73;59.08
28008;BME280;15333;50.010;20.020;2023-02-22T15:31:29;98873.84;;;6.57;59.08
28008;BME280;15333;50.010;20.020;2023-02-22T15:34:31;98875.31;;;6.47;59.73
28008;BME280;15333;50.010;20.020;2023-02-22T15:37:32;98871.06;;;6.45;59.79
28008;BME280;15333;50.010;20.020;2023-02-22T15:40:34;98873.78;;;6.43;59.61
28008;BME280;15333;50.010;20.020;2023-02-22T15:43:35;98877.59;;;6.39;60.34
28008;BME280;15333;50.010;20.020;2023-02-22T15:46:39;98883.06;;;6.36;60.14
28008;BME280;15333;50.010;20.020;2023-02-22T15:49:40;98876.22;;;6.32;60.14
28008;BME280;15333;50.010;20.020;2023-02-22T15:56:26;98874.84;;;6.25;60.20
28008;BME280;15333;50.010;20.020;2023-02-22T15:59:30;98874.84;;;6.25;60.07
28008;BME280;15333;50.010;20.020;2023-02-22T16:02:36;98875.38;;;6.16;60.81
28008;BME280;15333;50.010;20.020;2023-02-22T16:05:49;98882.75;;;6.11;61.46
28008;BME280;15333;50.010;20.020;2023-02-22T16:08:51;98887.44;;;6.06;61.64
28008;BME280;15333;50.010;20.020;2023-02-22T16:12:19;98895.41;;;6.06;61.42
28008;BME280;15333;50.010;20.020;2023-02-22T16:15:22;98886.84;;;6.01;61.38
28008;BME280;15333;50.010;20.020;2023-02-22T16:18:34;98892.50;;;5.95;61.58
28008;BME280;15333;50.010;20.020;2023-02-22T16:21:59;98893.38;;;5.95;61.68
28008;BME280;15333;50.010;20.020;2023-02-22T16:28:26;98897.97;;;5.92;62.12
28008;BME280;15333;50.010;20.020;2023-02-22T16:31:32;98901.56;;;5.90;61.67
28008;BME280;15333;50.010;20.020;2023-02-22T16:34:33;98900.00;;;5.86;61.89
28008;BME280;15333;50.010;20.020;2023-02-22T16:37:34;98906.44;;;5.82;62.17
28008;BME280;15333;50.010;20.020;2023-02-22T16:40:46;98904.88;;;5.78;62.14
28008;BME280;15333;50.010;20.020;2023-02-22T16:43:49;98902.56;;;5.72;62.90
28008;BME280;15333;50.010;20.020;2023-02-22T16:46:56;98904.44;;;5.86;62.41
28008;BME280;15333;50.010;20.020;2023-02-22T16:49:57;98902.53;;;5.89;62.34
28008;BME280;15333;50.010;20.020;2023-02-22T16:52:59;98906.72;;;5.94;61.83
28008;BME280;15333;50.010;20.020;2023-02-22T16:56:03;98907.19;;;5.84;62.22
28008;BME280;15333;50.010;20.020;2023-02-22T16:59:11;98913.00;;;5.75;63.03
28008;BME280;15333;50.010;20.020;2023-02-22T17:02:14;98918.78;;;5.50;64.78
28008;BME280;15333;50.010;20.020;2023-02-22T17:05:15;98918.56;;;5.38;65.12
28008;BME280;15333;50.010;20.020;2023-02-22T17:08:16;98921.69;;;5.29;65.57
28008;BME280;15333;50.010;20.020;2023-02-22T17:11:18;98923.16;;;5.34;64.84
28008;BME280;15333;50.010;20.020;2023-02-22T17:14:21;98914.47;;;5.48;63.07
28008;BME280;15333;50.010;20.020;2023-02-22T17:17:23;98919.56;;;5.53;62.55
28008;BME280;15333;50.010;20.020;2023-02-22T17:20:25;98927.91;;;5.45;63.10
28008;BME280;15333;50.010;20.020;2023-02-22T17:23:30;98924.94;;;5.34;63.94
28008;BME280;15333;50.010;20.020;2023-02-22T17:26:30;98921.16;;;5.22;66.16
28008;BME280;15333;50.010;20.020;2023-02-22T17:29:31;98920.69;;;5.14;67.96
28008;BME280;15333;50.010;20.020;2023-02-22T17:32:32;98923.41;;;5.12;68.64
28008;BME280;15333;50.010;20.020;2023-02-22T17:35:36;98926.09;;;4.95;68.95
28008;BME280;15333;50.010;20.020;2023-02-22T17:38:37;98919.50;;;4.85;69.98
28008;BME280;15333;50.010;20.020;2023-02-22T17:41:41;98918.56;;;4.69;70.05
28008;BME280;15333;50.010;20.020;2023-02-22T17:44:42;98917.06;;;4.63;70.66
28008;BME280;15333;50.010;20.020;2023-02-22T17:47:43;98913.09;;;4.55;71.01
28008;BME280;15333;50.010;20.020;2023-02-22T17:50:45;98925.22;;;4.42;71.52
28008;BME280;15333;50.010;20.020;2023-02-22T17:53:47;98925.13;;;4.26;71.13
28008;BME280;15333;50.010;20.020;2023-02-22T17:56:48;98923.28;;;4.09;72.56
28008;BME280;15333;50.010;20.020;2023-02-22T17:59:49;98925.63;;;3.97;72.91
28008;BME280;15333;50.010;20.020;2023-02-22T18:02:50;98920.91;;;3.84;73.66
28008;BME280;15333;50.010;20.020;2023-02-22T18:05:56;98924.75;;;3.77;75.74
28008;BME280;15333;50.010;20.020;2023-02-22T18:08:59;98916.41;;;3.68;76.41
28008;BME280;15333;50.010;20.020;2023-02-22T18:12:00;98923.13;;;3.75;76.69
28008;BME280;15333;50.010;20.020;2023-02-22T18:15:02;98918.69;;;3.75;77.63
28008;BME280;15333;50.010;20.020;2023-02-22T18:18:03;98917.25;;;3.68;76.35
28008;BME280;15333;50.010;20.020;2023-02-22T18:21:04;98921.25;;;3.58;76.92
28008;BME280;15333;50.010;20.020;2023-02-22T18:24:06;98927.78;;;3.49;78.47
28008;BME280;15333;50.010;20.020;2023-02-22T18:27:07;98931.91;;;3.36;77.86
28008;BME280;15333;50.010;20.020;2023-02-22T18:30:11;98925.34;;;3.26;77.76
28008;BME280;15333;50.010;20.020;2023-02-22T18:33:12;98922.94;;;3.20;77.59
28008;BME280;15333;50.010;20.020;2023-02-22T18:36:14;98919.91;;;3.09;78.75
28008;BME280;15333;50.010;20.020;2023-02-22T18:39:15;98925.84;;;2.94;79.26
28008;BME280;15333;50.010;20.020;2023-02-22T18:42:16;98925.19;;;2.89;80.42
28008;BME280;15333;50.010;20.020;2023-02-22T18:45:20;98929.13;;;2.79;80.67
28008;BME280;15333;50.010;20.020;2023-02-22T18:48:22;98925.28;;;2.65;81.85
28008;BME280;15333;50.010;20.020;2023-02-22T18:51:25;98929.25;;;2.55;82.32
28008;BME280;15333;50.010;20.020;2023-02-22T18:54:26;98925.81;;;2.53;83.79
28008;BME280;15333;50.010;20.020;2023-02-22T18:57:27;98923.28;;;2.50;84.46